Time;durP1;ratioP1;P1;durP2;ratioP2;P2;SDS_P1;SDS_P2;PMS_P1;PMS_P2;Temp;Humidity;BMP_temperature;BMP_pressure;BME280_temperature;BME280_humidity;BME280_pressure;Samples;Min_cycle;Max_cycle;Signal;HPM_P1;HPM_P2
2023/08/21 00:00:08;;;;;;;8.30;3.63;;;18.80;99.90;;;;;;4894216;29;20221;-74
2023/08/21 00:02:34;;;;;;;10.25;3.30;;;18.70;99.90;;;;;;4881487;29;20148;-72
2023/08/21 00:05:00;;;;;;;9.55;3.00;;;18.70;99.90;;;;;;4853059;29;20503;-70
2023/08/21 00:07:25;;;;;;;7.82;3.00;;;18.70;99.90;;;;;;4895801;29;20623;-71
2023/08/21 00:09:51;;;;;;;12.07;3.50;;;18.70;99.90;;;;;;4896832;29;20123;-70
2023/08/21 00:12:17;;;;;;;8.27;3.10;;;18.60;99.90;;;;;;4888303;29;20044;-71
2023/08/21 00:14:43;;;;;;;8.65;3.10;;;18.60;99.90;;;;;;4884277;29;20048;-70
2023/08/21 00:17:08;;;;;;;9.35;2.83;;;18.60;99.90;;;;;;4895330;29;20124;-73
2023/08/21 00:19:34;;;;;;;7.15;2.78;;;18.50;99.90;;;;;;4896574;29;20079;-71
2023/08/21 00:22:00;;;;;;;10.98;3.22;;;18.50;99.90;;;;;;4879700;29;20084;-70
2023/08/21 00:24:26;;;;;;;7.50;3.15;;;18.40;99.90;;;;;;4890550;29;20059;-70
2023/08/21 00:26:52;;;;;;;9.23;3.40;;;18.40;99.90;;;;;;4881132;29;20044;-70
2023/08/21 00:29:18;;;;;;;9.15;3.63;;;18.30;99.90;;;;;;4893609;29;20041;-70
2023/08/21 00:31:43;;;;;;;7.65;3.15;;;18.30;99.90;;;;;;4897685;29;20136;-70
2023/08/21 00:34:09;;;;;;;9.63;2.95;;;18.30;99.90;;;;;;4889245;29;20108;-75
2023/08/21 00:36:35;;;;;;;9.85;3.40;;;18.30;99.90;;;;;;4896485;29;20462;-70
2023/08/21 00:39:01;;;;;;;8.68;3.47;;;18.20;99.90;;;;;;4876618;29;20103;-70
2023/08/21 00:41:26;;;;;;;11.77;3.20;;;18.10;99.90;;;;;;4891975;29;20074;-71
2023/08/21 00:43:52;;;;;;;9.05;3.20;;;18.10;99.90;;;;;;4886370;29;20504;-71
2023/08/21 00:46:18;;;;;;;7.93;2.58;;;18.10;99.90;;;;;;4897033;29;20093;-70
2023/08/21 00:48:44;;;;;;;6.45;3.35;;;18.00;99.90;;;;;;4891357;29;20049;-70
2023/08/21 00:51:11;;;;;;;9.05;3.83;;;18.10;99.90;;;;;;4892166;29;20041;-70
2023/08/21 00:53:37;;;;;;;9.00;4.05;;;18.00;99.90;;;;;;4847029;29;20056;-70
2023/08/21 00:56:04;;;;;;;11.38;3.85;;;18.00;99.90;;;;;;4863083;29;20100;-70
2023/08/21 00:58:30;;;;;;;11.90;3.85;;;18.00;99.90;;;;;;4897280;29;20048;-71
2023/08/21 01:00:57;;;;;;;12.02;4.53;;;18.00;99.90;;;;;;4879637;29;20072;-70
2023/08/21 01:03:24;;;;;;;7.40;3.42;;;18.00;99.90;;;;;;4858262;29;20522;-71
2023/08/21 01:05:50;;;;;;;10.90;4.35;;;17.90;99.90;;;;;;4866230;29;20146;-70
2023/08/21 01:08:40;;;;;;;10.23;3.90;;;17.90;99.90;;;;;;4890644;29;20064;-71
2023/08/21 01:11:18;;;;;;;13.43;4.00;;;17.90;99.90;;;;;;4902360;29;20056;-69
2023/08/21 01:13:53;;;;;;;11.57;3.83;;;17.90;99.90;;;;;;4899238;29;20067;-69
2023/08/21 01:16:21;;;;;;;11.85;3.97;;;17.90;99.90;;;;;;4895593;29;20052;-71
2023/08/21 01:18:49;;;;;;;8.20;3.88;;;17.90;99.90;;;;;;4883904;29;20053;-71
2023/08/21 01:21:16;;;;;;;11.50;3.60;;;17.90;99.90;;;;;;4892213;29;20103;-70
2023/08/21 01:23:43;;;;;;;9.38;3.85;;;17.90;99.90;;;;;;4896867;29;20127;-70
2023/08/21 01:26:09;;;;;;;12.48;4.05;;;17.80;99.90;;;;;;4885699;29;20389;-70
2023/08/21 01:28:35;;;;;;;7.15;3.55;;;17.80;99.90;;;;;;4889031;29;20440;-71
2023/08/21 01:31:34;;;;;;;13.48;4.63;;;17.80;99.90;;;;;;4879077;29;20045;-70
2023/08/21 01:34:04;;;;;;;10.60;4.00;;;17.60;99.90;;;;;;4871972;29;20064;-71
2023/08/21 01:36:31;;;;;;;11.05;4.32;;;17.70;99.90;;;;;;4883966;29;20045;-70
2023/08/21 01:38:57;;;;;;;13.38;4.50;;;17.70;99.90;;;;;;4870567;29;20052;-70
2023/08/21 01:41:24;;;;;;;10.73;3.70;;;17.70;99.90;;;;;;4864330;29;20048;-71
2023/08/21 01:43:50;;;;;;;6.32;3.40;;;17.70;99.90;;;;;;4869650;29;20551;-71
2023/08/21 01:46:16;;;;;;;9.23;3.72;;;17.70;99.90;;;;;;4883352;29;20120;-71
2023/08/21 01:48:41;;;;;;;10.20;4.03;;;17.60;99.90;;;;;;4889638;29;20053;-70
2023/08/21 01:51:08;;;;;;;9.23;3.60;;;17.60;99.90;;;;;;4867561;29;20056;-70
2023/08/21 01:53:34;;;;;;;9.02;3.65;;;17.50;99.90;;;;;;4886995;29;20041;-72
2023/08/21 01:55:59;;;;;;;9.95;3.58;;;17.50;99.90;;;;;;4892251;29;20143;-70
2023/08/21 01:58:25;;;;;;;8.27;3.88;;;17.50;99.90;;;;;;4870260;29;20048;-70
2023/08/21 02:00:51;;;;;;;8.23;3.83;;;17.50;99.90;;;;;;4895504;29;20109;-70
2023/08/21 02:03:16;;;;;;;9.50;3.95;;;17.50;99.90;;;;;;4894518;29;20144;-70
2023/08/21 02:05:42;;;;;;;10.02;3.67;;;17.40;99.90;;;;;;4891535;29;20056;-70
2023/08/21 02:08:12;;;;;;;6.82;3.42;;;17.40;99.90;;;;;;4891973;29;20051;-70
2023/08/21 02:10:38;;;;;;;10.23;3.97;;;17.40;99.90;;;;;;4900106;29;20056;-70
2023/08/21 02:13:03;;;;;;;9.55;3.80;;;17.30;99.90;;;;;;4898852;29;20041;-70
2023/08/21 02:15:29;;;;;;;8.15;3.50;;;17.30;99.90;;;;;;4894765;29;20048;-71
2023/08/21 02:17:55;;;;;;;9.63;4.15;;;17.30;99.90;;;;;;4888180;29;20056;-69
2023/08/21 02:20:21;;;;;;;7.70;3.50;;;17.20;99.90;;;;;;4898945;29;20555;-70
2023/08/21 02:22:46;;;;;;;9.43;4.28;;;17.20;99.90;;;;;;4882627;29;20052;-70
2023/08/21 02:25:12;;;;;;;9.80;3.33;;;17.20;99.90;;;;;;4898233;29;20056;-70
2023/08/21 02:27:38;;;;;;;12.05;3.65;;;17.20;99.90;;;;;;4880264;29;20063;-71
2023/08/21 02:30:04;;;;;;;7.63;3.70;;;17.20;99.90;;;;;;4885724;29;20152;-70
2023/08/21 02:32:30;;;;;;;9.07;4.20;;;17.20;99.90;;;;;;4874386;29;20041;-71
2023/08/21 02:34:55;;;;;;;13.65;3.90;;;17.20;99.90;;;;;;4881415;29;20058;-71
2023/08/21 02:37:21;;;;;;;10.50;4.30;;;17.20;99.90;;;;;;4900269;29;20044;-70
2023/08/21 02:39:47;;;;;;;8.00;3.70;;;17.20;99.90;;;;;;4869042;29;20479;-70
2023/08/21 02:42:13;;;;;;;8.50;4.15;;;17.20;99.90;;;;;;4894939;29;20053;-70
2023/08/21 02:44:38;;;;;;;9.35;3.80;;;17.20;99.90;;;;;;4897930;29;20124;-71
2023/08/21 02:47:04;;;;;;;9.55;3.83;;;17.10;99.90;;;;;;4868031;29;20115;-70
2023/08/21 02:49:30;;;;;;;11.02;3.78;;;17.10;99.90;;;;;;4889294;29;20498;-70
2023/08/21 02:51:56;;;;;;;8.18;3.67;;;17.10;99.90;;;;;;4897048;29;20044;-70
2023/08/21 02:54:21;;;;;;;10.02;3.80;;;17.00;99.90;;;;;;4891822;29;20048;-70
2023/08/21 02:56:48;;;;;;;8.15;3.75;;;17.00;99.90;;;;;;4885123;29;20109;-70
2023/08/21 02:59:13;;;;;;;8.73;3.83;;;17.00;99.90;;;;;;4895239;29;20056;-69
2023/08/21 03:01:39;;;;;;;9.98;4.18;;;16.90;99.90;;;;;;4880210;29;20352;-70
2023/08/21 03:04:05;;;;;;;9.93;3.90;;;16.90;99.90;;;;;;4897602;29;20395;-70
2023/08/21 03:06:30;;;;;;;8.98;3.97;;;16.90;99.90;;;;;;4896567;29;20055;-73
2023/08/21 03:08:56;;;;;;;7.38;3.90;;;16.90;99.90;;;;;;4889068;29;20074;-71
2023/08/21 03:11:22;;;;;;;11.70;4.25;;;16.90;99.90;;;;;;4865362;29;20411;-71
2023/08/21 03:13:47;;;;;;;9.63;4.18;;;16.90;99.90;;;;;;4878321;29;20053;-70
2023/08/21 03:16:13;;;;;;;7.22;4.03;;;16.90;99.90;;;;;;4879987;29;20060;-70
2023/08/21 03:18:55;;;;;;;9.18;3.90;;;16.80;99.90;;;;;;4879834;29;20101;-71
2023/08/21 03:21:23;;;;;;;10.05;3.88;;;16.80;99.90;;;;;;4879243;29;20073;-71
2023/08/21 03:23:59;;;;;;;7.97;3.70;;;16.80;99.90;;;;;;4863609;29;20117;-72
2023/08/21 03:26:25;;;;;;;8.40;4.28;;;16.80;99.90;;;;;;4874219;29;20391;-71
2023/08/21 03:28:51;;;;;;;17.38;4.20;;;16.80;99.90;;;;;;4897272;29;20119;-70
2023/08/21 03:31:17;;;;;;;7.07;3.40;;;16.80;99.90;;;;;;4875451;29;20132;-71
2023/08/21 03:33:43;;;;;;;11.25;4.13;;;16.80;99.90;;;;;;4873508;29;20056;-71
2023/08/21 03:36:09;;;;;;;9.43;4.07;;;16.70;99.90;;;;;;4897367;29;20056;-70
2023/08/21 03:38:35;;;;;;;8.90;3.97;;;16.70;99.90;;;;;;4898055;29;20050;-75
2023/08/21 03:41:01;;;;;;;6.38;3.50;;;16.70;99.90;;;;;;4891662;29;20059;-70
2023/08/21 03:43:27;;;;;;;9.18;3.83;;;16.70;99.90;;;;;;4895114;29;20041;-69
2023/08/21 03:45:53;;;;;;;8.07;3.50;;;16.70;99.90;;;;;;4897812;29;20131;-69
2023/08/21 03:48:18;;;;;;;10.93;3.70;;;16.70;99.90;;;;;;4881463;29;20124;-70
2023/08/21 03:50:44;;;;;;;9.35;4.38;;;16.70;99.90;;;;;;4895616;29;20052;-70
2023/08/21 03:53:10;;;;;;;9.57;4.05;;;16.70;99.90;;;;;;4866727;29;20057;-70
2023/08/21 03:55:35;;;;;;;12.05;3.80;;;16.70;99.90;;;;;;4898512;29;20454;-71
2023/08/21 03:58:01;;;;;;;9.60;4.00;;;16.70;99.90;;;;;;4897187;29;20100;-70
2023/08/21 04:00:27;;;;;;;6.78;3.72;;;16.60;99.90;;;;;;4897227;29;20399;-71
2023/08/21 04:02:52;;;;;;;8.07;3.60;;;16.60;99.90;;;;;;4856789;29;20069;-71
2023/08/21 04:05:18;;;;;;;9.50;3.83;;;16.60;99.90;;;;;;4896153;29;20040;-70
2023/08/21 04:07:44;;;;;;;9.23;4.07;;;16.60;99.90;;;;;;4881064;29;20048;-71
2023/08/21 04:10:10;;;;;;;7.30;3.78;;;16.60;99.90;;;;;;4896773;29;20049;-71
2023/08/21 04:12:35;;;;;;;9.20;4.25;;;16.60;99.90;;;;;;4893566;29;20424;-71
2023/08/21 04:15:01;;;;;;;9.93;3.67;;;16.50;99.90;;;;;;4891631;29;20052;-71
2023/08/21 04:17:27;;;;;;;6.82;4.10;;;16.50;99.90;;;;;;4883479;29;20449;-70
2023/08/21 04:19:52;;;;;;;10.35;4.55;;;16.60;99.90;;;;;;4889497;29;20104;-71
2023/08/21 04:22:18;;;;;;;8.85;4.07;;;16.50;99.90;;;;;;4896743;29;20048;-71
2023/08/21 04:24:44;;;;;;;9.40;4.20;;;16.50;99.90;;;;;;4890688;29;20044;-71
2023/08/21 04:27:10;;;;;;;9.43;4.55;;;16.50;99.90;;;;;;4896916;29;20052;-71
2023/08/21 04:29:36;;;;;;;7.90;3.60;;;16.50;99.90;;;;;;4876148;29;20054;-70
2023/08/21 04:32:02;;;;;;;8.63;4.15;;;16.50;99.90;;;;;;4899950;29;20056;-70
2023/08/21 04:34:27;;;;;;;11.35;3.97;;;16.50;99.90;;;;;;4888377;29;21357;-71
2023/08/21 04:36:53;;;;;;;7.93;4.07;;;16.50;99.90;;;;;;4864228;29;20056;-70
2023/08/21 04:39:19;;;;;;;8.48;4.30;;;16.50;99.90;;;;;;4890300;29;20127;-71
2023/08/21 04:41:44;;;;;;;9.50;4.43;;;16.60;99.90;;;;;;4890878;29;20049;-72
2023/08/21 04:44:10;;;;;;;10.30;4.00;;;16.60;99.90;;;;;;4886053;29;20159;-70
2023/08/21 04:46:36;;;;;;;7.45;4.18;;;16.60;99.90;;;;;;4878344;29;20439;-70
2023/08/21 04:49:02;;;;;;;9.20;4.43;;;16.60;99.90;;;;;;4878827;29;20546;-70
2023/08/21 04:51:27;;;;;;;8.85;4.35;;;16.60;99.90;;;;;;4877373;29;20041;-70
2023/08/21 04:53:53;;;;;;;12.55;4.90;;;16.70;99.90;;;;;;4876884;29;20049;-70
2023/08/21 04:56:19;;;;;;;9.35;4.55;;;16.70;99.90;;;;;;4861962;29;20082;-70
2023/08/21 04:58:44;;;;;;;10.15;4.47;;;16.70;99.90;;;;;;4862008;29;20057;-73
2023/08/21 05:01:10;;;;;;;10.07;4.40;;;16.70;99.90;;;;;;4876581;29;20056;-70
2023/08/21 05:03:36;;;;;;;11.43;4.68;;;16.80;99.90;;;;;;4861449;29;20060;-70
2023/08/21 05:06:02;;;;;;;11.38;4.70;;;16.80;99.90;;;;;;4877428;29;20457;-71
2023/08/21 05:08:27;;;;;;;8.30;4.28;;;16.80;99.90;;;;;;4867382;29;20402;-70
2023/08/21 05:10:57;;;;;;;9.48;4.20;;;16.80;99.90;;;;;;4860882;29;20048;-71
2023/08/21 05:13:24;;;;;;;10.10;4.40;;;16.80;99.90;;;;;;4866980;29;20132;-71
2023/08/21 05:15:54;;;;;;;8.85;4.22;;;16.90;99.90;;;;;;4876068;29;20084;-72
2023/08/21 05:18:20;;;;;;;9.00;3.75;;;16.90;99.90;;;;;;4878561;29;20056;-70
2023/08/21 05:20:47;;;;;;;13.32;4.55;;;16.90;99.90;;;;;;4873165;29;20064;-75
2023/08/21 05:23:13;;;;;;;7.13;4.10;;;16.90;99.90;;;;;;4862475;29;20076;-71
2023/08/21 05:25:39;;;;;;;9.65;4.28;;;17.00;99.90;;;;;;4882362;29;20118;-70
2023/08/21 05:28:05;;;;;;;10.90;4.35;;;17.00;99.90;;;;;;4894696;29;20399;-70
2023/08/21 05:30:31;;;;;;;8.82;4.78;;;17.10;99.90;;;;;;4895426;29;20120;-70
2023/08/21 05:32:57;;;;;;;9.98;4.30;;;17.20;99.90;;;;;;4894020;29;20504;-71
2023/08/21 05:35:23;;;;;;;8.32;4.15;;;17.30;99.90;;;;;;4892706;29;20411;-70
2023/08/21 05:37:49;;;;;;;9.50;3.80;;;17.70;99.90;;;;;;4866303;29;20416;-75
2023/08/21 05:40:14;;;;;;;7.80;3.50;;;18.50;99.90;;;;;;4881059;29;20049;-71
2023/08/21 05:42:40;;;;;;;6.75;3.47;;;19.20;99.90;;;;;;4872131;29;20053;-71
2023/08/21 05:45:06;;;;;;;7.75;3.42;;;20.00;99.90;;;;;;4871947;29;20057;-71
2023/08/21 05:47:32;;;;;;;5.20;3.10;;;20.70;99.90;;;;;;4880916;29;20071;-70
2023/08/21 05:49:57;;;;;;;6.47;2.92;;;21.30;99.90;;;;;;4882140;29;20483;-71
2023/08/21 05:52:23;;;;;;;8.32;3.03;;;21.90;99.90;;;;;;4879767;29;20049;-70
2023/08/21 05:54:49;;;;;;;9.05;3.08;;;22.40;99.90;;;;;;4880333;29;20057;-71
2023/08/21 05:57:15;;;;;;;9.57;2.83;;;22.90;99.90;;;;;;4876295;29;20045;-70
2023/08/21 05:59:46;;;;;;;7.75;2.88;;;23.40;99.90;;;;;;4873511;29;20374;-70
2023/08/21 06:02:12;;;;;;;5.68;2.42;;;23.90;99.90;;;;;;4861701;29;20056;-70
2023/08/21 06:04:40;;;;;;;6.65;2.47;;;24.40;99.90;;;;;;4891155;29;20057;-71
2023/08/21 06:07:06;;;;;;;9.18;2.75;;;24.90;99.90;;;;;;4880073;29;20052;-70
2023/08/21 06:09:33;;;;;;;7.32;2.45;;;25.30;99.90;;;;;;4882622;29;20522;-70
2023/08/21 06:12:03;;;;;;;7.65;2.35;;;25.70;99.90;;;;;;4881002;29;20425;-69
2023/08/21 06:14:29;;;;;;;6.82;2.13;;;26.10;99.90;;;;;;4881300;29;20143;-70
2023/08/21 06:17:03;;;;;;;5.55;2.25;;;26.50;99.90;;;;;;4863613;29;20045;-74
2023/08/21 06:19:29;;;;;;;6.85;2.00;;;26.80;99.90;;;;;;4881708;29;20049;-70
2023/08/21 06:21:58;;;;;;;6.40;2.17;;;27.10;99.90;;;;;;4895082;29;20112;-76
2023/08/21 06:24:23;;;;;;;5.45;2.42;;;27.40;99.90;;;;;;4884094;29;20064;-71
2023/08/21 06:26:52;;;;;;;6.43;2.35;;;27.50;99.90;;;;;;4892979;29;20415;-70
2023/08/21 06:29:20;;;;;;;9.85;1.75;;;27.70;99.90;;;;;;4869988;29;20515;-70
2023/08/21 06:31:46;;;;;;;6.35;2.13;;;27.90;99.90;;;;;;4882973;29;20060;-72
2023/08/21 06:34:12;;;;;;;6.35;2.05;;;28.00;99.90;;;;;;4880836;29;20411;-71
2023/08/21 06:36:38;;;;;;;6.50;1.80;;;28.00;99.90;;;;;;4893386;29;20349;-70
2023/08/21 06:39:04;;;;;;;5.05;1.70;;;28.30;99.90;;;;;;4881414;29;20105;-71
2023/08/21 06:41:30;;;;;;;5.70;1.92;;;28.50;99.60;;;;;;4902022;29;20093;-73
2023/08/21 06:43:57;;;;;;;7.90;1.77;;;28.60;99.40;;;;;;4881755;29;20057;-71
2023/08/21 06:46:23;;;;;;;6.13;1.90;;;28.70;99.20;;;;;;4880064;29;20128;-70
2023/08/21 06:48:50;;;;;;;4.47;1.52;;;28.90;99.10;;;;;;4849278;29;20088;-71
2023/08/21 06:51:16;;;;;;;4.50;1.80;;;29.10;99.10;;;;;;4882054;29;20136;-70
2023/08/21 06:53:42;;;;;;;5.65;1.50;;;29.20;98.60;;;;;;4879576;29;20052;-70
2023/08/21 06:56:07;;;;;;;6.57;2.00;;;29.40;98.10;;;;;;4882500;29;20059;-71
2023/08/21 06:58:33;;;;;;;4.10;1.60;;;29.50;97.90;;;;;;4864338;29;20057;-71
2023/08/21 07:01:00;;;;;;;4.50;1.70;;;29.60;97.80;;;;;;4886366;29;20048;-72
2023/08/21 07:03:26;;;;;;;6.72;1.98;;;29.80;97.70;;;;;;4882032;29;20140;-72
2023/08/21 07:05:56;;;;;;;5.38;1.70;;;30.00;97.20;;;;;;4879044;29;20140;-72
2023/08/21 07:08:26;;;;;;;6.18;1.42;;;30.30;96.80;;;;;;4879174;29;20048;-73
2023/08/21 07:10:53;;;;;;;3.00;1.30;;;30.50;96.20;;;;;;4849091;29;20045;-73
2023/08/21 07:13:19;;;;;;;3.67;1.40;;;30.80;96.00;;;;;;4888458;29;20124;-72
2023/08/21 07:15:46;;;;;;;4.30;1.60;;;30.90;95.70;;;;;;4885923;29;20200;-72
2023/08/21 07:18:12;;;;;;;6.65;1.80;;;31.10;95.20;;;;;;4888021;29;20058;-74
2023/08/21 07:20:38;;;;;;;5.40;1.60;;;31.30;95.20;;;;;;4880003;29;20045;-72
2023/08/21 07:23:04;;;;;;;4.40;1.27;;;31.30;94.80;;;;;;4879935;29;20052;-77
2023/08/21 07:25:29;;;;;;;5.22;1.50;;;31.20;94.80;;;;;;4854724;29;20057;-73
2023/08/21 07:27:55;;;;;;;3.55;1.40;;;31.30;94.50;;;;;;4896864;29;20127;-72
2023/08/21 07:30:24;;;;;;;5.05;1.20;;;31.60;94.20;;;;;;4890460;29;20055;-72
2023/08/21 07:32:52;;;;;;;4.32;1.33;;;31.50;93.40;;;;;;4880640;29;20078;-73
2023/08/21 07:35:19;;;;;;;5.78;1.38;;;31.80;93.20;;;;;;4864175;29;20129;-72
2023/08/21 07:37:45;;;;;;;5.15;1.60;;;31.80;93.10;;;;;;4878322;29;20054;-73
2023/08/21 07:40:11;;;;;;;4.80;1.40;;;32.20;91.80;;;;;;4880286;29;20172;-73
2023/08/21 07:42:37;;;;;;;4.30;1.30;;;32.60;92.20;;;;;;4871008;29;20044;-70
2023/08/21 07:45:03;;;;;;;5.50;1.45;;;33.00;92.10;;;;;;4879290;29;20108;-76
2023/08/21 07:47:29;;;;;;;4.78;1.60;;;33.20;91.80;;;;;;4878945;29;20148;-72
2023/08/21 07:49:57;;;;;;;4.82;1.73;;;33.30;91.40;;;;;;4863290;29;20131;-73
2023/08/21 07:52:23;;;;;;;4.68;1.30;;;33.30;90.90;;;;;;4877903;29;20072;-71
2023/08/21 07:54:52;;;;;;;4.13;1.20;;;33.30;91.20;;;;;;4884898;29;20414;-74
2023/08/21 07:57:18;;;;;;;5.53;1.60;;;33.10;90.80;;;;;;4849582;29;20158;-72
2023/08/21 07:59:44;;;;;;;4.82;1.20;;;33.20;91.20;;;;;;4879253;29;20128;-70
2023/08/21 08:02:12;;;;;;;3.83;1.38;;;33.30;90.80;;;;;;4867240;29;20045;-76
2023/08/21 08:04:38;;;;;;;6.25;1.50;;;33.60;90.10;;;;;;4848820;29;20064;-71
2023/08/21 08:07:04;;;;;;;5.05;1.60;;;33.60;90.50;;;;;;4880039;29;20504;-70
2023/08/21 08:09:30;;;;;;;5.70;1.60;;;34.00;90.30;;;;;;4878722;29;20116;-71
2023/08/21 08:11:56;;;;;;;2.88;1.27;;;34.20;90.10;;;;;;4879992;29;20045;-73
2023/08/21 08:14:21;;;;;;;5.03;1.48;;;34.60;89.60;;;;;;4888016;29;20564;-73
2023/08/21 08:16:47;;;;;;;3.70;1.23;;;34.80;89.10;;;;;;4880633;29;20052;-71
2023/08/21 08:19:13;;;;;;;4.28;1.45;;;35.40;88.60;;;;;;4861196;29;20044;-72
2023/08/21 08:21:39;;;;;;;3.17;1.60;;;35.50;87.40;;;;;;4861868;29;20132;-71
2023/08/21 08:24:05;;;;;;;2.92;1.23;;;35.80;86.50;;;;;;4879978;29;20044;-72
2023/08/21 08:26:30;;;;;;;5.43;1.42;;;35.90;85.90;;;;;;4879811;29;20045;-72
2023/08/21 08:28:56;;;;;;;4.15;1.55;;;35.90;85.80;;;;;;4863659;29;20048;-71
2023/08/21 08:31:23;;;;;;;4.50;1.30;;;36.10;85.50;;;;;;4877525;29;20564;-71
2023/08/21 08:33:49;;;;;;;3.80;1.35;;;36.20;85.40;;;;;;4876963;29;20075;-72
2023/08/21 08:36:15;;;;;;;4.57;1.40;;;36.40;84.90;;;;;;4846037;29;20053;-73
2023/08/21 08:38:41;;;;;;;3.75;1.40;;;36.30;85.40;;;;;;4872302;29;20067;-72
2023/08/21 08:41:12;;;;;;;5.40;1.50;;;36.40;85.20;;;;;;4860477;29;20084;-71
2023/08/21 08:43:40;;;;;;;3.97;1.20;;;36.50;84.00;;;;;;4876826;29;20483;-71
2023/08/21 08:46:08;;;;;;;3.97;1.40;;;36.60;83.70;;;;;;4862541;29;20060;-72
2023/08/21 08:48:35;;;;;;;4.43;1.40;;;36.70;82.90;;;;;;4877835;29;20503;-72
2023/08/21 08:51:03;;;;;;;7.05;1.33;;;36.60;83.20;;;;;;4878852;29;20132;-71
2023/08/21 08:53:29;;;;;;;3.10;1.27;;;36.70;82.80;;;;;;4861469;29;20055;-73
2023/08/21 08:55:55;;;;;;;3.30;1.27;;;36.60;83.00;;;;;;4877213;29;20045;-72
2023/08/21 08:58:22;;;;;;;2.08;1.10;;;36.50;82.80;;;;;;4875430;29;20128;-75
2023/08/21 09:00:49;;;;;;;5.97;1.50;;;36.70;82.80;;;;;;4877909;29;20449;-73
2023/08/21 09:03:15;;;;;;;4.43;1.40;;;36.60;83.10;;;;;;4878163;29;20072;-74
2023/08/21 09:05:41;;;;;;;5.05;1.65;;;36.70;82.70;;;;;;4861458;29;20076;-73
2023/08/21 09:08:11;;;;;;;5.30;1.35;;;36.80;82.70;;;;;;4866271;29;20522;-72
2023/08/21 09:10:38;;;;;;;3.25;1.20;;;37.00;82.60;;;;;;4865467;29;20221;-73
2023/08/21 09:13:16;;;;;;;2.90;1.30;;;37.10;82.10;;;;;;4877487;29;20084;-72
2023/08/21 09:15:53;;;;;;;3.78;1.40;;;36.70;81.20;;;;;;4864101;29;20060;-72
2023/08/21 09:18:19;;;;;;;4.78;1.33;;;36.50;82.20;;;;;;4882933;29;20384;-77
2023/08/21 09:20:45;;;;;;;4.63;1.27;;;36.50;82.40;;;;;;4880765;29;20059;-72
2023/08/21 09:23:18;;;;;;;4.25;1.33;;;36.60;82.30;;;;;;4878952;29;20052;-73
2023/08/21 09:25:49;;;;;;;4.53;1.27;;;36.60;81.30;;;;;;4881863;29;20053;-74
2023/08/21 09:28:20;;;;;;;3.63;1.30;;;36.70;82.10;;;;;;4896370;29;20103;-73
2023/08/21 09:30:58;;;;;;;3.55;1.10;;;36.50;82.20;;;;;;4889472;29;20135;-72
2023/08/21 09:33:24;;;;;;;2.63;1.15;;;36.40;82.20;;;;;;4881696;29;20526;-73
2023/08/21 09:35:54;;;;;;;4.57;1.48;;;36.20;81.30;;;;;;4876973;29;20053;-70
2023/08/21 09:38:20;;;;;;;3.00;1.35;;;36.20;80.70;;;;;;4861260;29;20045;-77
2023/08/21 09:40:56;;;;;;;5.68;1.30;;;36.20;81.50;;;;;;4877354;29;20060;-71
2023/08/21 09:43:23;;;;;;;4.22;1.27;;;35.90;80.90;;;;;;4860290;29;20049;-77
2023/08/21 09:45:53;;;;;;;3.08;1.40;;;35.20;81.20;;;;;;4876551;29;20076;-69
2023/08/21 09:48:24;;;;;;;5.32;1.30;;;34.50;82.60;;;;;;4877852;29;20372;-69
2023/08/21 09:50:51;;;;;;;4.10;1.40;;;34.00;82.80;;;;;;4881583;29;20049;-70
2023/08/21 09:53:17;;;;;;;4.55;1.33;;;33.60;83.50;;;;;;4877053;29;20132;-70
2023/08/21 09:55:44;;;;;;;4.35;1.33;;;33.30;83.90;;;;;;4876306;29;20221;-70
2023/08/21 09:58:10;;;;;;;5.25;1.50;;;33.00;84.30;;;;;;4876600;29;20049;-69
2023/08/21 10:00:37;;;;;;;3.20;1.35;;;32.90;85.30;;;;;;4877339;29;20045;-71
2023/08/21 10:03:07;;;;;;;4.30;1.30;;;32.70;85.30;;;;;;4886164;29;20139;-76
2023/08/21 10:05:35;;;;;;;5.00;1.50;;;32.30;85.20;;;;;;4876065;29;20112;-72
2023/08/21 10:08:05;;;;;;;4.85;1.55;;;32.20;85.50;;;;;;4862788;29;20049;-71
2023/08/21 10:10:32;;;;;;;6.28;1.50;;;32.00;85.90;;;;;;4879493;29;20041;-72
2023/08/21 10:12:59;;;;;;;3.72;1.20;;;31.90;87.00;;;;;;4877441;29;20049;-71
2023/08/21 10:15:28;;;;;;;4.40;1.63;;;31.90;86.90;;;;;;4876487;29;20479;-81
2023/08/21 10:17:54;;;;;;;4.65;1.42;;;31.70;87.10;;;;;;4870323;29;20048;-71
2023/08/21 10:20:23;;;;;;;4.97;1.50;;;31.50;86.70;;;;;;4877576;29;20059;-71
2023/08/21 10:22:53;;;;;;;3.72;1.40;;;31.40;86.30;;;;;;4876152;29;20435;-71
2023/08/21 10:25:26;;;;;;;3.30;1.40;;;31.10;87.30;;;;;;4879381;29;20405;-71
2023/08/21 10:27:56;;;;;;;4.63;1.42;;;30.80;86.90;;;;;;4897206;29;20123;-71
2023/08/21 10:30:24;;;;;;;3.47;1.20;;;30.60;86.70;;;;;;4889828;29;20052;-71
2023/08/21 10:32:51;;;;;;;4.72;1.67;;;30.60;87.00;;;;;;4882768;29;20064;-70
2023/08/21 10:35:22;;;;;;;4.32;1.40;;;30.50;88.00;;;;;;4896672;29;20071;-70
2023/08/21 10:38:11;;;;;;;2.88;1.30;;;30.60;88.20;;;;;;4897526;29;20303;-71
2023/08/21 10:40:38;;;;;;;2.75;1.23;;;30.70;88.70;;;;;;4892418;29;20131;-72
2023/08/21 10:43:04;;;;;;;4.82;1.40;;;30.80;87.90;;;;;;4881843;29;20120;-72
2023/08/21 10:45:30;;;;;;;4.25;1.38;;;30.80;87.70;;;;;;4888494;29;20057;-82
2023/08/21 10:48:00;;;;;;;5.28;1.40;;;30.90;87.80;;;;;;4898498;29;20148;-71
2023/08/21 10:50:26;;;;;;;4.50;1.65;;;30.70;86.30;;;;;;4892818;29;20100;-72
2023/08/21 10:52:53;;;;;;;3.80;1.38;;;30.60;87.10;;;;;;4884339;29;20053;-73
2023/08/21 10:55:20;;;;;;;3.90;1.50;;;30.40;87.00;;;;;;4882054;29;20076;-71
2023/08/21 10:57:49;;;;;;;8.07;1.83;;;30.20;87.90;;;;;;4881830;29;20049;-71
2023/08/21 11:00:17;;;;;;;4.10;1.60;;;30.10;88.60;;;;;;4894920;29;20558;-71
2023/08/21 11:02:45;;;;;;;3.22;1.38;;;30.10;88.20;;;;;;4898327;29;20052;-71
2023/08/21 11:05:13;;;;;;;4.03;1.67;;;30.00;89.20;;;;;;4889266;29;20483;-71
2023/08/21 11:07:46;;;;;;;5.15;1.52;;;30.10;88.70;;;;;;4871438;29;20551;-71
2023/08/21 11:10:16;;;;;;;3.60;1.50;;;30.00;89.60;;;;;;4879878;29;20127;-72
2023/08/21 11:12:56;;;;;;;4.05;1.75;;;30.00;89.40;;;;;;4867220;29;20049;-72
2023/08/21 11:15:21;;;;;;;3.40;1.48;;;30.10;88.60;;;;;;4880849;29;20560;-71
2023/08/21 11:17:55;;;;;;;5.05;1.80;;;30.10;89.40;;;;;;4884118;29;20044;-72
2023/08/21 11:20:20;;;;;;;;;;;30.10;88.90;;;;;;4876959;29;20045;-72
2023/08/21 11:22:46;;;;;;;5.18;1.42;;;30.10;88.80;;;;;;4879752;29;19976;-71
2023/08/21 11:25:13;;;;;;;4.82;1.55;;;30.10;88.90;;;;;;4880195;29;20113;-71
2023/08/21 11:27:39;;;;;;;3.40;1.45;;;30.10;89.10;;;;;;4881852;29;20108;-71
2023/08/21 11:30:06;;;;;;;3.92;1.40;;;30.00;88.10;;;;;;4882885;29;20041;-71
2023/08/21 11:32:32;;;;;;;3.47;1.45;;;30.00;87.30;;;;;;4883579;29;20041;-72
2023/08/21 11:34:58;;;;;;;2.97;1.40;;;30.00;88.20;;;;;;4862564;29;20488;-71
2023/08/21 11:37:26;;;;;;;8.48;1.67;;;30.10;87.10;;;;;;4879528;29;20401;-70
2023/08/21 11:39:54;;;;;;;6.00;1.58;;;30.10;87.10;;;;;;4879333;29;20049;-70
2023/08/21 11:42:22;;;;;;;5.90;1.80;;;30.00;88.40;;;;;;4874693;29;20470;-70
2023/08/21 11:44:52;;;;;;;4.55;1.58;;;30.00;88.50;;;;;;4883617;29;20387;-70
2023/08/21 11:47:20;;;;;;;4.88;1.88;;;30.00;88.60;;;;;;4878864;29;20633;-71
2023/08/21 11:49:48;;;;;;;4.88;1.50;;;29.90;88.30;;;;;;4887206;29;20052;-70
2023/08/21 11:52:19;;;;;;;5.00;1.50;;;29.80;88.50;;;;;;4883256;29;20049;-69
2023/08/21 11:54:51;;;;;;;4.43;1.80;;;29.90;88.70;;;;;;4878451;29;20053;-69
2023/08/21 11:57:17;;;;;;;4.90;1.70;;;29.90;89.20;;;;;;4878092;29;20491;-69
2023/08/21 11:59:48;;;;;;;6.65;1.60;;;29.90;89.00;;;;;;4856992;29;20045;-69
2023/08/21 12:02:17;;;;;;;4.30;1.50;;;29.80;88.70;;;;;;4879284;29;20108;-69
2023/08/21 12:04:43;;;;;;;4.72;1.60;;;29.90;89.20;;;;;;4877753;29;20488;-70
2023/08/21 12:07:09;;;;;;;4.90;1.65;;;29.90;89.40;;;;;;4886162;29;20079;-69
2023/08/21 12:09:35;;;;;;;4.13;1.60;;;29.90;89.30;;;;;;4861870;29;20044;-69
2023/08/21 12:12:01;;;;;;;3.45;1.50;;;29.90;88.80;;;;;;4878724;29;20592;-69
2023/08/21 12:14:28;;;;;;;5.20;1.60;;;29.90;89.40;;;;;;4878694;29;20503;-68
2023/08/21 12:16:55;;;;;;;4.45;1.75;;;29.90;89.50;;;;;;4877752;29;20128;-70
2023/08/21 12:19:23;;;;;;;4.68;1.60;;;30.00;89.80;;;;;;4878440;29;20089;-69
2023/08/21 12:21:49;;;;;;;5.53;1.73;;;30.10;88.50;;;;;;4876659;29;20091;-69
2023/08/21 12:24:14;;;;;;;5.15;1.52;;;30.10;89.40;;;;;;4885908;29;20069;-69
2023/08/21 12:26:40;;;;;;;4.65;1.50;;;30.10;89.40;;;;;;4882020;29;20125;-70
2023/08/21 12:29:06;;;;;;;10.23;1.90;;;30.20;89.50;;;;;;4880662;29;20055;-70
2023/08/21 12:31:31;;;;;;;5.00;1.77;;;30.10;89.30;;;;;;4892027;29;20104;-69
2023/08/21 12:33:58;;;;;;;5.32;1.73;;;30.00;88.00;;;;;;4890663;29;20056;-69
2023/08/21 12:36:24;;;;;;;5.53;1.40;;;29.80;88.70;;;;;;4894865;29;20056;-69
2023/08/21 12:38:49;;;;;;;5.32;1.70;;;29.80;88.00;;;;;;4895364;29;20140;-69
2023/08/21 12:41:15;;;;;;;4.97;1.73;;;29.80;88.40;;;;;;4863958;29;20053;-74
2023/08/21 12:43:41;;;;;;;5.78;1.73;;;29.80;89.00;;;;;;4886249;29;20080;-68